sensor_id;sensor_type;location;lat;lon;timestamp;temperature;humidity
13682;DHT22;6913;49.892;7.936;2023-04-21T00:01:28;7.30;99.90
13682;DHT22;6913;49.892;7.936;2023-04-21T00:03:56;7.30;99.90
13682;DHT22;6913;49.892;7.936;2023-04-21T00:06:23;7.20;99.90
13682;DHT22;6913;49.892;7.936;2023-04-21T00:08:51;7.30;99.90
13682;DHT22;6913;49.892;7.936;2023-04-21T00:11:19;7.40;99.90
13682;DHT22;6913;49.892;7.936;2023-04-21T00:13:47;7.40;99.90
13682;DHT22;6913;49.892;7.936;2023-04-21T00:16:13;7.70;99.90
13682;DHT22;6913;49.892;7.936;2023-04-21T00:18:40;7.40;99.90
13682;DHT22;6913;49.892;7.936;2023-04-21T00:21:07;7.40;99.90
13682;DHT22;6913;49.892;7.936;2023-04-21T00:23:34;7.40;99.90
13682;DHT22;6913;49.892;7.936;2023-04-21T00:26:01;7.40;99.90
13682;DHT22;6913;49.892;7.936;2023-04-21T00:28:29;7.30;99.90
13682;DHT22;6913;49.892;7.936;2023-04-21T00:30:56;7.40;99.90
13682;DHT22;6913;49.892;7.936;2023-04-21T00:33:23;7.50;99.90
13682;DHT22;6913;49.892;7.936;2023-04-21T00:35:49;7.60;99.90
13682;DHT22;6913;49.892;7.936;2023-04-21T00:38:19;8.00;99.90
13682;DHT22;6913;49.892;7.936;2023-04-21T00:40:45;7.80;99.90
13682;DHT22;6913;49.892;7.936;2023-04-21T00:43:12;7.80;99.90
13682;DHT22;6913;49.892;7.936;2023-04-21T00:45:43;7.80;99.90
13682;DHT22;6913;49.892;7.936;2023-04-21T00:48:10;7.80;99.90
13682;DHT22;6913;49.892;7.936;2023-04-21T00:50:37;7.90;99.90
13682;DHT22;6913;49.892;7.936;2023-04-21T00:53:04;7.90;99.90
13682;DHT22;6913;49.892;7.936;2023-04-21T00:55:31;7.80;99.90
13682;DHT22;6913;49.892;7.936;2023-04-21T00:57:57;7.80;99.90
13682;DHT22;6913;49.892;7.936;2023-04-21T01:00:24;7.80;99.90
13682;DHT22;6913;49.892;7.936;2023-04-21T01:02:53;7.70;99.90
13682;DHT22;6913;49.892;7.936;2023-04-21T01:05:20;7.70;99.90
13682;DHT22;6913;49.892;7.936;2023-04-21T01:07:47;7.50;99.90
13682;DHT22;6913;49.892;7.936;2023-04-21T01:10:13;7.20;99.90
13682;DHT22;6913;49.892;7.936;2023-04-21T01:12:43;7.00;99.90
13682;DHT22;6913;49.892;7.936;2023-04-21T01:15:11;7.00;99.90
13682;DHT22;6913;49.892;7.936;2023-04-21T01:17:38;6.90;99.90
13682;DHT22;6913;49.892;7.936;2023-04-21T01:20:10;6.80;99.90
13682;DHT22;6913;49.892;7.936;2023-04-21T01:22:40;6.70;99.90
13682;DHT22;6913;49.892;7.936;2023-04-21T01:25:07;6.60;99.90
13682;DHT22;6913;49.892;7.936;2023-04-21T01:27:34;6.50;99.90
13682;DHT22;6913;49.892;7.936;2023-04-21T01:30:02;6.50;99.90
13682;DHT22;6913;49.892;7.936;2023-04-21T01:32:29;6.40;99.90
13682;DHT22;6913;49.892;7.936;2023-04-21T01:34:57;6.30;99.90
13682;DHT22;6913;49.892;7.936;2023-04-21T01:37:26;6.20;99.90
13682;DHT22;6913;49.892;7.936;2023-04-21T01:39:56;6.10;99.90
13682;DHT22;6913;49.892;7.936;2023-04-21T01:42:25;6.10;99.90
13682;DHT22;6913;49.892;7.936;2023-04-21T01:44:52;5.90;99.90
13682;DHT22;6913;49.892;7.936;2023-04-21T01:47:20;5.90;99.90
13682;DHT22;6913;49.892;7.936;2023-04-21T01:49:47;5.80;99.90
13682;DHT22;6913;49.892;7.936;2023-04-21T01:52:14;5.70;99.90
13682;DHT22;6913;49.892;7.936;2023-04-21T01:54:40;5.70;99.90
13682;DHT22;6913;49.892;7.936;2023-04-21T01:57:09;5.80;99.90
13682;DHT22;6913;49.892;7.936;2023-04-21T01:59:36;5.80;99.90
13682;DHT22;6913;49.892;7.936;2023-04-21T02:02:03;5.80;99.90
13682;DHT22;6913;49.892;7.936;2023-04-21T02:04:29;5.70;99.90
13682;DHT22;6913;49.892;7.936;2023-04-21T02:06:56;5.80;99.90
13682;DHT22;6913;49.892;7.936;2023-04-21T02:09:23;5.80;99.90
13682;DHT22;6913;49.892;7.936;2023-04-21T02:11:50;5.80;99.90
13682;DHT22;6913;49.892;7.936;2023-04-21T02:14:18;6.00;99.90
13682;DHT22;6913;49.892;7.936;2023-04-21T02:16:45;5.80;99.90
13682;DHT22;6913;49.892;7.936;2023-04-21T02:19:11;5.80;99.90
13682;DHT22;6913;49.892;7.936;2023-04-21T02:21:38;5.80;99.90
13682;DHT22;6913;49.892;7.936;2023-04-21T02:24:05;5.80;99.90
13682;DHT22;6913;49.892;7.936;2023-04-21T02:26:32;5.80;99.90
13682;DHT22;6913;49.892;7.936;2023-04-21T02:28:59;5.80;99.90
13682;DHT22;6913;49.892;7.936;2023-04-21T02:31:27;5.80;99.90
13682;DHT22;6913;49.892;7.936;2023-04-21T02:33:54;5.80;99.90
13682;DHT22;6913;49.892;7.936;2023-04-21T02:36:21;5.60;99.90
13682;DHT22;6913;49.892;7.936;2023-04-21T02:38:48;5.70;99.90
13682;DHT22;6913;49.892;7.936;2023-04-21T02:41:15;5.70;99.90
13682;DHT22;6913;49.892;7.936;2023-04-21T02:43:42;5.70;99.90
13682;DHT22;6913;49.892;7.936;2023-04-21T02:46:09;5.70;99.90
13682;DHT22;6913;49.892;7.936;2023-04-21T02:48:37;5.30;99.90
13682;DHT22;6913;49.892;7.936;2023-04-21T02:51:04;5.70;99.90
13682;DHT22;6913;49.892;7.936;2023-04-21T02:53:30;5.50;99.90
13682;DHT22;6913;49.892;7.936;2023-04-21T02:55:57;5.50;99.90
13682;DHT22;6913;49.892;7.936;2023-04-21T02:58:26;5.60;99.90
13682;DHT22;6913;49.892;7.936;2023-04-21T03:00:53;5.60;99.90
13682;DHT22;6913;49.892;7.936;2023-04-21T03:03:20;5.50;99.90
13682;DHT22;6913;49.892;7.936;2023-04-21T03:05:48;5.20;99.90
13682;DHT22;6913;49.892;7.936;2023-04-21T03:08:15;5.30;99.90
13682;DHT22;6913;49.892;7.936;2023-04-21T03:10:42;5.10;99.90
13682;DHT22;6913;49.892;7.936;2023-04-21T03:13:09;5.00;99.90
13682;DHT22;6913;49.892;7.936;2023-04-21T03:15:35;4.90;99.90
13682;DHT22;6913;49.892;7.936;2023-04-21T03:18:02;5.40;99.90
13682;DHT22;6913;49.892;7.936;2023-04-21T03:20:29;4.90;99.90
13682;DHT22;6913;49.892;7.936;2023-04-21T03:22:57;4.90;99.90
13682;DHT22;6913;49.892;7.936;2023-04-21T03:25:24;5.10;99.90
13682;DHT22;6913;49.892;7.936;2023-04-21T03:27:52;5.20;99.90
13682;DHT22;6913;49.892;7.936;2023-04-21T03:30:19;5.20;99.90
13682;DHT22;6913;49.892;7.936;2023-04-21T03:32:45;5.10;99.90
13682;DHT22;6913;49.892;7.936;2023-04-21T03:35:12;5.10;99.90
13682;DHT22;6913;49.892;7.936;2023-04-21T03:37:39;5.20;99.90
13682;DHT22;6913;49.892;7.936;2023-04-21T03:40:08;5.30;99.90
13682;DHT22;6913;49.892;7.936;2023-04-21T03:42:35;5.40;99.90
13682;DHT22;6913;49.892;7.936;2023-04-21T03:45:02;5.50;99.90
13682;DHT22;6913;49.892;7.936;2023-04-21T03:47:29;5.70;99.90
13682;DHT22;6913;49.892;7.936;2023-04-21T03:49:56;5.80;99.90
13682;DHT22;6913;49.892;7.936;2023-04-21T03:52:23;5.80;99.90
13682;DHT22;6913;49.892;7.936;2023-04-21T03:54:50;5.90;99.90
13682;DHT22;6913;49.892;7.936;2023-04-21T03:57:18;5.90;99.90
13682;DHT22;6913;49.892;7.936;2023-04-21T03:59:45;5.90;99.90
13682;DHT22;6913;49.892;7.936;2023-04-21T04:02:12;5.90;99.90
13682;DHT22;6913;49.892;7.936;2023-04-21T04:04:38;6.00;99.90
13682;DHT22;6913;49.892;7.936;2023-04-21T04:07:05;6.10;99.90
13682;DHT22;6913;49.892;7.936;2023-04-21T04:09:34;6.10;99.90
13682;DHT22;6913;49.892;7.936;2023-04-21T04:12:01;6.10;99.90
13682;DHT22;6913;49.892;7.936;2023-04-21T04:14:29;6.10;99.90
13682;DHT22;6913;49.892;7.936;2023-04-21T04:16:57;6.10;99.90
13682;DHT22;6913;49.892;7.936;2023-04-21T04:19:29;6.20;99.90
13682;DHT22;6913;49.892;7.936;2023-04-21T04:21:57;6.20;99.90
13682;DHT22;6913;49.892;7.936;2023-04-21T04:24:25;6.20;99.90
13682;DHT22;6913;49.892;7.936;2023-04-21T04:26:52;6.10;99.90
13682;DHT22;6913;49.892;7.936;2023-04-21T04:29:19;6.20;99.90
13682;DHT22;6913;49.892;7.936;2023-04-21T04:31:48;6.10;99.90
13682;DHT22;6913;49.892;7.936;2023-04-21T04:34:15;6.10;99.90
13682;DHT22;6913;49.892;7.936;2023-04-21T04:36:42;6.20;99.90
13682;DHT22;6913;49.892;7.936;2023-04-21T04:39:09;6.20;99.90
13682;DHT22;6913;49.892;7.936;2023-04-21T04:41:37;6.10;99.90
13682;DHT22;6913;49.892;7.936;2023-04-21T04:44:04;6.20;99.90
13682;DHT22;6913;49.892;7.936;2023-04-21T04:46:31;6.20;99.90
13682;DHT22;6913;49.892;7.936;2023-04-21T04:49:00;6.20;99.90
13682;DHT22;6913;49.892;7.936;2023-04-21T04:51:27;6.20;99.90
13682;DHT22;6913;49.892;7.936;2023-04-21T04:53:53;6.20;99.90
13682;DHT22;6913;49.892;7.936;2023-04-21T04:56:20;6.20;99.90
13682;DHT22;6913;49.892;7.936;2023-04-21T04:58:48;6.20;99.90
13682;DHT22;6913;49.892;7.936;2023-04-21T05:01:15;6.20;99.90
13682;DHT22;6913;49.892;7.936;2023-04-21T05:03:43;6.30;99.90
13682;DHT22;6913;49.892;7.936;2023-04-21T05:06:12;6.20;99.90
13682;DHT22;6913;49.892;7.936;2023-04-21T05:08:38;6.20;99.90
13682;DHT22;6913;49.892;7.936;2023-04-21T05:11:06;6.30;99.90
13682;DHT22;6913;49.892;7.936;2023-04-21T05:13:33;6.20;99.90
13682;DHT22;6913;49.892;7.936;2023-04-21T05:16:00;6.50;99.90
13682;DHT22;6913;49.892;7.936;2023-04-21T05:18:27;6.30;99.90
13682;DHT22;6913;49.892;7.936;2023-04-21T05:20:55;6.30;99.90
13682;DHT22;6913;49.892;7.936;2023-04-21T05:23:23;6.30;99.90
13682;DHT22;6913;49.892;7.936;2023-04-21T05:25:50;6.40;99.90
13682;DHT22;6913;49.892;7.936;2023-04-21T05:28:16;6.30;99.90
13682;DHT22;6913;49.892;7.936;2023-04-21T05:30:43;6.30;99.90
13682;DHT22;6913;49.892;7.936;2023-04-21T05:33:10;6.40;99.90
13682;DHT22;6913;49.892;7.936;2023-04-21T05:35:37;6.50;99.90
13682;DHT22;6913;49.892;7.936;2023-04-21T05:38:05;6.80;99.90
13682;DHT22;6913;49.892;7.936;2023-04-21T05:40:33;6.60;99.90
13682;DHT22;6913;49.892;7.936;2023-04-21T05:43:00;6.60;99.90
13682;DHT22;6913;49.892;7.936;2023-04-21T05:45:27;6.70;99.90
13682;DHT22;6913;49.892;7.936;2023-04-21T05:47:54;6.70;99.90
13682;DHT22;6913;49.892;7.936;2023-04-21T05:50:21;6.80;99.90
13682;DHT22;6913;49.892;7.936;2023-04-21T05:52:47;6.70;99.90
13682;DHT22;6913;49.892;7.936;2023-04-21T05:55:14;6.80;99.90
13682;DHT22;6913;49.892;7.936;2023-04-21T05:57:42;6.60;99.90
13682;DHT22;6913;49.892;7.936;2023-04-21T06:00:10;6.50;99.90
13682;DHT22;6913;49.892;7.936;2023-04-21T06:02:37;6.60;99.90
13682;DHT22;6913;49.892;7.936;2023-04-21T06:05:04;6.70;99.90
13682;DHT22;6913;49.892;7.936;2023-04-21T06:07:31;6.90;99.90
13682;DHT22;6913;49.892;7.936;2023-04-21T06:10:01;6.70;99.90
13682;DHT22;6913;49.892;7.936;2023-04-21T06:12:28;6.70;99.90
13682;DHT22;6913;49.892;7.936;2023-04-21T06:14:56;6.70;99.90
13682;DHT22;6913;49.892;7.936;2023-04-21T06:17:23;6.60;99.90
13682;DHT22;6913;49.892;7.936;2023-04-21T06:19:50;6.70;99.90
13682;DHT22;6913;49.892;7.936;2023-04-21T06:22:18;6.60;99.90
13682;DHT22;6913;49.892;7.936;2023-04-21T06:24:45;6.70;99.90
13682;DHT22;6913;49.892;7.936;2023-04-21T06:27:12;6.60;99.90
13682;DHT22;6913;49.892;7.936;2023-04-21T06:29:39;6.60;99.90
13682;DHT22;6913;49.892;7.936;2023-04-21T06:32:08;6.80;99.90
13682;DHT22;6913;49.892;7.936;2023-04-21T06:34:35;6.90;99.90
13682;DHT22;6913;49.892;7.936;2023-04-21T06:37:02;6.80;99.90
13682;DHT22;6913;49.892;7.936;2023-04-21T06:39:29;6.80;99.90
13682;DHT22;6913;49.892;7.936;2023-04-21T06:41:55;6.80;99.90
13682;DHT22;6913;49.892;7.936;2023-04-21T06:44:23;7.20;99.90
13682;DHT22;6913;49.892;7.936;2023-04-21T06:46:50;7.00;99.90
13682;DHT22;6913;49.892;7.936;2023-04-21T06:49:18;6.90;99.90
13682;DHT22;6913;49.892;7.936;2023-04-21T06:51:45;7.00;99.90
13682;DHT22;6913;49.892;7.936;2023-04-21T06:54:11;7.20;99.90
13682;DHT22;6913;49.892;7.936;2023-04-21T06:56:38;7.30;99.90
13682;DHT22;6913;49.892;7.936;2023-04-21T06:59:07;7.40;99.90
13682;DHT22;6913;49.892;7.936;2023-04-21T07:01:34;7.40;99.90
13682;DHT22;6913;49.892;7.936;2023-04-21T07:04:00;7.30;99.90
13682;DHT22;6913;49.892;7.936;2023-04-21T07:06:28;7.30;99.90
13682;DHT22;6913;49.892;7.936;2023-04-21T07:08:56;7.20;99.90
13682;DHT22;6913;49.892;7.936;2023-04-21T07:11:23;7.30;99.90
13682;DHT22;6913;49.892;7.936;2023-04-21T07:13:49;7.40;99.90
13682;DHT22;6913;49.892;7.936;2023-04-21T07:16:16;7.50;99.90
13682;DHT22;6913;49.892;7.936;2023-04-21T07:18:43;7.50;99.90
13682;DHT22;6913;49.892;7.936;2023-04-21T07:21:10;7.50;99.90
13682;DHT22;6913;49.892;7.936;2023-04-21T07:23:38;7.60;99.90
13682;DHT22;6913;49.892;7.936;2023-04-21T07:26:05;7.50;99.90
13682;DHT22;6913;49.892;7.936;2023-04-21T07:28:31;7.60;99.90
13682;DHT22;6913;49.892;7.936;2023-04-21T07:30:58;7.60;99.90
13682;DHT22;6913;49.892;7.936;2023-04-21T07:33:25;7.60;99.90
13682;DHT22;6913;49.892;7.936;2023-04-21T07:38:19;7.80;99.90
13682;DHT22;6913;49.892;7.936;2023-04-21T07:40:47;8.20;99.90
13682;DHT22;6913;49.892;7.936;2023-04-21T07:43:14;8.30;99.90
13682;DHT22;6913;49.892;7.936;2023-04-21T07:45:41;8.50;99.90
13682;DHT22;6913;49.892;7.936;2023-04-21T07:48:07;8.60;99.90
13682;DHT22;6913;49.892;7.936;2023-04-21T07:50:35;8.70;99.90
13682;DHT22;6913;49.892;7.936;2023-04-21T07:53:02;9.40;99.90
13682;DHT22;6913;49.892;7.936;2023-04-21T07:55:29;9.50;99.90
13682;DHT22;6913;49.892;7.936;2023-04-21T07:57:57;9.40;99.90
13682;DHT22;6913;49.892;7.936;2023-04-21T08:00:24;9.70;99.90
13682;DHT22;6913;49.892;7.936;2023-04-21T08:02:51;10.00;99.90
13682;DHT22;6913;49.892;7.936;2023-04-21T08:05:18;10.30;99.90
13682;DHT22;6913;49.892;7.936;2023-04-21T08:07:45;10.40;99.90
13682;DHT22;6913;49.892;7.936;2023-04-21T08:10:11;10.60;99.90
13682;DHT22;6913;49.892;7.936;2023-04-21T08:12:38;10.70;99.90
13682;DHT22;6913;49.892;7.936;2023-04-21T08:15:07;10.30;99.90
13682;DHT22;6913;49.892;7.936;2023-04-21T08:17:37;10.30;99.90
13682;DHT22;6913;49.892;7.936;2023-04-21T08:20:05;10.20;99.90
13682;DHT22;6913;49.892;7.936;2023-04-21T08:22:32;10.10;99.90
13682;DHT22;6913;49.892;7.936;2023-04-21T08:25:00;10.10;99.90
13682;DHT22;6913;49.892;7.936;2023-04-21T08:27:27;10.30;99.90
13682;DHT22;6913;49.892;7.936;2023-04-21T08:29:54;10.50;99.90
13682;DHT22;6913;49.892;7.936;2023-04-21T08:32:22;11.00;99.90
13682;DHT22;6913;49.892;7.936;2023-04-21T08:34:50;10.90;99.90
13682;DHT22;6913;49.892;7.936;2023-04-21T08:37:18;10.90;99.90
13682;DHT22;6913;49.892;7.936;2023-04-21T08:39:45;10.90;99.90
13682;DHT22;6913;49.892;7.936;2023-04-21T08:42:12;11.00;99.90
13682;DHT22;6913;49.892;7.936;2023-04-21T08:44:39;11.50;99.90
13682;DHT22;6913;49.892;7.936;2023-04-21T08:47:09;11.90;99.90
13682;DHT22;6913;49.892;7.936;2023-04-21T08:49:38;12.90;99.90
13682;DHT22;6913;49.892;7.936;2023-04-21T08:52:05;13.20;99.90
13682;DHT22;6913;49.892;7.936;2023-04-21T08:54:33;13.60;99.90
13682;DHT22;6913;49.892;7.936;2023-04-21T08:57:00;13.00;99.90
13682;DHT22;6913;49.892;7.936;2023-04-21T08:59:30;13.20;99.90
13682;DHT22;6913;49.892;7.936;2023-04-21T09:02:10;14.40;99.90
13682;DHT22;6913;49.892;7.936;2023-04-21T09:04:39;13.50;99.90
13682;DHT22;6913;49.892;7.936;2023-04-21T09:07:07;14.10;99.90
13682;DHT22;6913;49.892;7.936;2023-04-21T17:17:21;16.50;64.10
13682;DHT22;6913;49.892;7.936;2023-04-21T17:19:49;15.90;59.50
13682;DHT22;6913;49.892;7.936;2023-04-21T17:22:17;14.80;56.10
13682;DHT22;6913;49.892;7.936;2023-04-21T17:24:44;13.80;99.90
13682;DHT22;6913;49.892;7.936;2023-04-21T17:27:11;13.50;99.90
13682;DHT22;6913;49.892;7.936;2023-04-21T17:29:38;13.50;99.90
13682;DHT22;6913;49.892;7.936;2023-04-21T17:32:04;13.20;99.90
13682;DHT22;6913;49.892;7.936;2023-04-21T17:34:31;13.20;99.90
13682;DHT22;6913;49.892;7.936;2023-04-21T17:36:59;13.10;99.90
13682;DHT22;6913;49.892;7.936;2023-04-21T17:39:26;12.90;99.90
13682;DHT22;6913;49.892;7.936;2023-04-21T17:41:53;12.70;99.90
13682;DHT22;6913;49.892;7.936;2023-04-21T17:44:20;12.10;99.90
13682;DHT22;6913;49.892;7.936;2023-04-21T17:46:46;11.60;99.90
13682;DHT22;6913;49.892;7.936;2023-04-21T17:49:13;11.90;99.90
13682;DHT22;6913;49.892;7.936;2023-04-21T17:51:41;11.50;99.90
13682;DHT22;6913;49.892;7.936;2023-04-21T17:54:09;11.60;99.90
13682;DHT22;6913;49.892;7.936;2023-04-21T17:56:36;11.70;99.90
13682;DHT22;6913;49.892;7.936;2023-04-21T17:59:03;12.20;99.90
13682;DHT22;6913;49.892;7.936;2023-04-21T18:01:30;12.20;99.90
13682;DHT22;6913;49.892;7.936;2023-04-21T18:03:57;12.50;99.90
13682;DHT22;6913;49.892;7.936;2023-04-21T18:06:24;12.70;99.90
13682;DHT22;6913;49.892;7.936;2023-04-21T18:08:51;12.90;99.90
13682;DHT22;6913;49.892;7.936;2023-04-21T18:11:19;12.90;99.90
13682;DHT22;6913;49.892;7.936;2023-04-21T18:13:47;12.90;99.90
13682;DHT22;6913;49.892;7.936;2023-04-21T18:16:13;12.90;99.90
13682;DHT22;6913;49.892;7.936;2023-04-21T18:18:40;12.90;99.90
13682;DHT22;6913;49.892;7.936;2023-04-21T18:21:08;12.90;99.90
13682;DHT22;6913;49.892;7.936;2023-04-21T18:23:36;13.00;99.90
13682;DHT22;6913;49.892;7.936;2023-04-21T18:26:03;12.90;99.90
13682;DHT22;6913;49.892;7.936;2023-04-21T18:28:31;12.90;99.90
13682;DHT22;6913;49.892;7.936;2023-04-21T18:30:58;12.50;99.90
13682;DHT22;6913;49.892;7.936;2023-04-21T18:33:25;12.60;99.90
13682;DHT22;6913;49.892;7.936;2023-04-21T18:35:52;12.60;99.90
13682;DHT22;6913;49.892;7.936;2023-04-21T18:38:19;11.90;99.90
13682;DHT22;6913;49.892;7.936;2023-04-21T18:40:45;12.00;99.90
13682;DHT22;6913;49.892;7.936;2023-04-21T18:43:13;12.00;99.90
13682;DHT22;6913;49.892;7.936;2023-04-21T18:45:41;12.00;99.90
13682;DHT22;6913;49.892;7.936;2023-04-21T18:48:08;12.00;99.90
13682;DHT22;6913;49.892;7.936;2023-04-21T18:50:35;12.00;99.90
13682;DHT22;6913;49.892;7.936;2023-04-21T18:53:04;12.00;99.90
13682;DHT22;6913;49.892;7.936;2023-04-21T18:55:31;11.80;99.90
13682;DHT22;6913;49.892;7.936;2023-04-21T18:57:58;11.70;99.90
13682;DHT22;6913;49.892;7.936;2023-04-21T19:00:25;11.40;99.90
13682;DHT22;6913;49.892;7.936;2023-04-21T19:02:53;10.70;99.90
13682;DHT22;6913;49.892;7.936;2023-04-21T19:05:20;10.60;99.90
13682;DHT22;6913;49.892;7.936;2023-04-21T19:07:47;10.80;99.90
13682;DHT22;6913;49.892;7.936;2023-04-21T19:10:14;10.80;99.90
13682;DHT22;6913;49.892;7.936;2023-04-21T19:12:41;10.90;99.90
13682;DHT22;6913;49.892;7.936;2023-04-21T19:15:08;11.30;99.90
13682;DHT22;6913;49.892;7.936;2023-04-21T19:17:36;11.00;99.90
13682;DHT22;6913;49.892;7.936;2023-04-21T19:20:06;10.70;99.90
13682;DHT22;6913;49.892;7.936;2023-04-21T19:22:33;10.60;99.90
13682;DHT22;6913;49.892;7.936;2023-04-21T19:25:00;10.70;99.90
13682;DHT22;6913;49.892;7.936;2023-04-21T19:27:27;10.70;99.90
13682;DHT22;6913;49.892;7.936;2023-04-21T19:29:56;10.90;99.90
13682;DHT22;6913;49.892;7.936;2023-04-21T19:32:23;10.80;99.90
13682;DHT22;6913;49.892;7.936;2023-04-21T19:34:50;10.80;99.90
13682;DHT22;6913;49.892;7.936;2023-04-21T19:37:18;10.70;99.90
13682;DHT22;6913;49.892;7.936;2023-04-21T19:39:45;10.70;99.90
13682;DHT22;6913;49.892;7.936;2023-04-21T19:42:12;10.70;99.90
13682;DHT22;6913;49.892;7.936;2023-04-21T19:44:39;10.60;99.90
13682;DHT22;6913;49.892;7.936;2023-04-21T19:47:05;10.60;99.90
13682;DHT22;6913;49.892;7.936;2023-04-21T19:49:32;10.50;99.90
13682;DHT22;6913;49.892;7.936;2023-04-21T19:51:59;10.10;99.90
13682;DHT22;6913;49.892;7.936;2023-04-21T19:54:28;10.20;99.90
13682;DHT22;6913;49.892;7.936;2023-04-21T19:56:55;10.20;99.90
13682;DHT22;6913;49.892;7.936;2023-04-21T19:59:22;10.30;99.90
13682;DHT22;6913;49.892;7.936;2023-04-21T20:01:48;10.50;99.90
13682;DHT22;6913;49.892;7.936;2023-04-21T20:04:15;10.30;99.90
13682;DHT22;6913;49.892;7.936;2023-04-21T20:06:42;10.30;99.90
13682;DHT22;6913;49.892;7.936;2023-04-21T20:09:09;10.30;99.90
13682;DHT22;6913;49.892;7.936;2023-04-21T20:11:37;10.20;99.90
13682;DHT22;6913;49.892;7.936;2023-04-21T20:14:04;9.60;99.90
13682;DHT22;6913;49.892;7.936;2023-04-21T20:16:31;9.60;99.90
13682;DHT22;6913;49.892;7.936;2023-04-21T20:18:58;10.00;99.90
13682;DHT22;6913;49.892;7.936;2023-04-21T20:21:25;9.90;99.90
13682;DHT22;6913;49.892;7.936;2023-04-21T20:23:53;9.90;99.90
13682;DHT22;6913;49.892;7.936;2023-04-21T20:26:20;9.90;99.90
13682;DHT22;6913;49.892;7.936;2023-04-21T20:28:48;9.90;99.90
13682;DHT22;6913;49.892;7.936;2023-04-21T20:31:15;9.90;99.90
13682;DHT22;6913;49.892;7.936;2023-04-21T20:33:43;9.80;99.90
13682;DHT22;6913;49.892;7.936;2023-04-21T20:36:10;9.70;99.90
13682;DHT22;6913;49.892;7.936;2023-04-21T20:38:37;9.30;99.90
13682;DHT22;6913;49.892;7.936;2023-04-21T20:41:03;9.30;99.90
13682;DHT22;6913;49.892;7.936;2023-04-21T20:43:30;9.30;99.90
13682;DHT22;6913;49.892;7.936;2023-04-21T20:45:59;9.30;99.90
13682;DHT22;6913;49.892;7.936;2023-04-21T20:48:27;9.40;99.90
13682;DHT22;6913;49.892;7.936;2023-04-21T20:50:54;9.30;99.90
13682;DHT22;6913;49.892;7.936;2023-04-21T20:53:21;9.30;99.90
13682;DHT22;6913;49.892;7.936;2023-04-21T20:55:48;9.20;99.90
13682;DHT22;6913;49.892;7.936;2023-04-21T20:58:15;9.20;99.90
13682;DHT22;6913;49.892;7.936;2023-04-21T21:00:42;9.20;99.90
13682;DHT22;6913;49.892;7.936;2023-04-21T21:03:12;9.60;99.90
13682;DHT22;6913;49.892;7.936;2023-04-21T21:05:39;9.30;99.90
13682;DHT22;6913;49.892;7.936;2023-04-21T21:08:06;9.30;99.90
13682;DHT22;6913;49.892;7.936;2023-04-21T21:10:33;9.20;99.90
13682;DHT22;6913;49.892;7.936;2023-04-21T21:13:00;9.20;99.90
13682;DHT22;6913;49.892;7.936;2023-04-21T21:15:27;9.20;99.90
13682;DHT22;6913;49.892;7.936;2023-04-21T21:17:54;9.20;99.90
13682;DHT22;6913;49.892;7.936;2023-04-21T21:20:23;9.40;99.90
13682;DHT22;6913;49.892;7.936;2023-04-21T21:25:17;9.20;99.90
13682;DHT22;6913;49.892;7.936;2023-04-21T21:27:44;9.30;99.90
13682;DHT22;6913;49.892;7.936;2023-04-21T21:30:11;9.20;99.90
13682;DHT22;6913;49.892;7.936;2023-04-21T21:32:38;9.20;99.90
13682;DHT22;6913;49.892;7.936;2023-04-21T21:35:05;9.20;99.90
13682;DHT22;6913;49.892;7.936;2023-04-21T21:37:35;9.20;99.90
13682;DHT22;6913;49.892;7.936;2023-04-21T21:40:02;9.20;99.90
13682;DHT22;6913;49.892;7.936;2023-04-21T21:42:30;9.10;99.90
13682;DHT22;6913;49.892;7.936;2023-04-21T21:44:57;9.00;99.90
13682;DHT22;6913;49.892;7.936;2023-04-21T21:47:24;9.30;99.90
13682;DHT22;6913;49.892;7.936;2023-04-21T21:49:51;9.00;99.90
13682;DHT22;6913;49.892;7.936;2023-04-21T21:52:19;9.00;99.90
13682;DHT22;6913;49.892;7.936;2023-04-21T21:54:48;8.80;99.90
13682;DHT22;6913;49.892;7.936;2023-04-21T21:57:15;9.50;99.90
13682;DHT22;6913;49.892;7.936;2023-04-21T21:59:41;8.80;99.90
13682;DHT22;6913;49.892;7.936;2023-04-21T22:02:08;8.80;99.90
13682;DHT22;6913;49.892;7.936;2023-04-21T22:04:35;8.70;99.90
13682;DHT22;6913;49.892;7.936;2023-04-21T22:07:02;8.80;99.90
13682;DHT22;6913;49.892;7.936;2023-04-21T22:09:29;8.70;99.90
13682;DHT22;6913;49.892;7.936;2023-04-21T22:11:57;8.40;99.90
13682;DHT22;6913;49.892;7.936;2023-04-21T22:14:24;8.90;99.90
13682;DHT22;6913;49.892;7.936;2023-04-21T22:16:51;8.60;99.90
13682;DHT22;6913;49.892;7.936;2023-04-21T22:19:18;8.60;99.90
13682;DHT22;6913;49.892;7.936;2023-04-21T22:21:45;8.80;99.90
13682;DHT22;6913;49.892;7.936;2023-04-21T22:24:12;9.00;99.90
13682;DHT22;6913;49.892;7.936;2023-04-21T22:26:38;8.80;99.90
13682;DHT22;6913;49.892;7.936;2023-04-21T22:29:06;8.80;99.90
13682;DHT22;6913;49.892;7.936;2023-04-21T22:31:33;8.90;99.90
13682;DHT22;6913;49.892;7.936;2023-04-21T22:34:00;8.90;99.90
13682;DHT22;6913;49.892;7.936;2023-04-21T22:36:27;9.00;99.90
13682;DHT22;6913;49.892;7.936;2023-04-21T22:38:53;9.00;99.90
13682;DHT22;6913;49.892;7.936;2023-04-21T22:41:20;9.00;99.90
13682;DHT22;6913;49.892;7.936;2023-04-21T22:43:47;9.00;99.90
13682;DHT22;6913;49.892;7.936;2023-04-21T22:46:15;9.00;99.90
13682;DHT22;6913;49.892;7.936;2023-04-21T22:48:42;9.30;99.90
13682;DHT22;6913;49.892;7.936;2023-04-21T22:51:10;9.00;99.90
13682;DHT22;6913;49.892;7.936;2023-04-21T22:53:38;9.00;99.90
13682;DHT22;6913;49.892;7.936;2023-04-21T22:56:05;9.00;99.90
13682;DHT22;6913;49.892;7.936;2023-04-21T22:58:32;9.10;99.90
13682;DHT22;6913;49.892;7.936;2023-04-21T23:00:59;9.00;99.90
13682;DHT22;6913;49.892;7.936;2023-04-21T23:03:27;8.90;99.90
13682;DHT22;6913;49.892;7.936;2023-04-21T23:05:55;9.00;99.90
13682;DHT22;6913;49.892;7.936;2023-04-21T23:08:22;9.00;99.90
13682;DHT22;6913;49.892;7.936;2023-04-21T23:10:49;9.10;99.90
13682;DHT22;6913;49.892;7.936;2023-04-21T23:13:16;9.10;99.90
13682;DHT22;6913;49.892;7.936;2023-04-21T23:15:42;9.10;99.90
13682;DHT22;6913;49.892;7.936;2023-04-21T23:18:09;9.30;99.90
13682;DHT22;6913;49.892;7.936;2023-04-21T23:20:37;9.20;99.90
13682;DHT22;6913;49.892;7.936;2023-04-21T23:23:05;9.10;99.90
13682;DHT22;6913;49.892;7.936;2023-04-21T23:25:31;9.10;99.90
13682;DHT22;6913;49.892;7.936;2023-04-21T23:27:58;9.10;99.90
13682;DHT22;6913;49.892;7.936;2023-04-21T23:30:25;9.10;99.90
13682;DHT22;6913;49.892;7.936;2023-04-21T23:32:52;9.10;99.90
13682;DHT22;6913;49.892;7.936;2023-04-21T23:35:19;9.10;99.90
13682;DHT22;6913;49.892;7.936;2023-04-21T23:37:47;9.10;99.90
13682;DHT22;6913;49.892;7.936;2023-04-21T23:40:14;8.80;99.90
13682;DHT22;6913;49.892;7.936;2023-04-21T23:42:40;8.70;99.90
13682;DHT22;6913;49.892;7.936;2023-04-21T23:45:08;8.80;99.90
13682;DHT22;6913;49.892;7.936;2023-04-21T23:47:35;8.90;99.90
13682;DHT22;6913;49.892;7.936;2023-04-21T23:50:02;8.90;99.90
13682;DHT22;6913;49.892;7.936;2023-04-21T23:52:30;8.80;99.90
13682;DHT22;6913;49.892;7.936;2023-04-21T23:54:58;8.80;99.90
13682;DHT22;6913;49.892;7.936;2023-04-21T23:57:25;8.90;99.90
